CheckWX is a tool to help pilots better visualize weather data.  It is not intended as a substitute for an official pre-flight weather briefing.

00:06:54 UTC

C07 METAR
Mack Mesa Airport
Mack, Colorado, USA
Current

43 mins ago

KC07 242324Z AUTO 28010G17KT 240V310 10SM SCT035 SCT041 SCT050 06/M02 A3022 RMK AO2
Observed
Apr-24 @ 23:24 UTC
Wind
  • 280° at 10 KTS
  • Gusting to 17 KTS
Visibility
10 SM
Flight Rules
VFR
Cloud Levels
  • Scattered at 3,500' AGL
  • Scattered at 4,100' AGL
  • Scattered at 5,000' AGL
Temperature
C / 43°F
Dewpoint
-2°C / 28°F
Humidity
57%
Altimeter
30.22" Hg
Pressure
1023.42 hPa
Previous

1 hour ago

KC07 242306Z AUTO 26008G17KT 220V300 10SM SCT033 BKN041 BKN050 08/M01 A3022 RMK AO2
Observed
Apr-24 @ 23:06 UTC
Wind
  • 260° at 8 KTS
  • Gusting to 17 KTS
Visibility
10 SM
Flight Rules
VFR
Cloud Levels
  • Scattered at 3,300' AGL
  • Broken at 4,100' AGL
  • Broken at 5,000' AGL
Temperature
C / 46°F
Dewpoint
-1°C / 30°F
Humidity
53%
Altimeter
30.22" Hg
Pressure
1023.42 hPa
Previous

1 hour ago

KC07 242242Z AUTO 27008G20KT 230V330 10SM SCT031 BKN037 BKN048 07/00 A3022 RMK AO2 LTG DSNT NE
Observed
Apr-24 @ 22:42 UTC
Wind
  • 270° at 8 KTS
  • Gusting to 20 KTS
Visibility
10 SM
Flight Rules
VFR
Cloud Levels
  • Scattered at 3,100' AGL
  • Broken at 3,700' AGL
  • Broken at 4,800' AGL
Temperature
C / 45°F
Dewpoint
C / 32°F
Humidity
61%
Altimeter
30.22" Hg
Pressure
1023.42 hPa